Time;durP1;ratioP1;P1;durP2;ratioP2;P2;SDS_P1;SDS_P2;PMS_P1;PMS_P2;Temp;Humidity;BMP_temperature;BMP_pressure;BME280_temperature;BME280_humidity;BME280_pressure;Samples;Min_cycle;Max_cycle;Signal;HPM_P1;HPM_P2
2022/04/12 03:36:58;;;;;;;;;;;;;;;4.76;56.95;97881.03;4994536;28;19916;-79
2022/04/12 03:39:27;;;;;;;;;;;;;;;4.72;57.03;97878.88;4950232;29;19927;-80
2022/04/12 03:41:58;;;;;;;;;;;;;;;4.44;58.40;97892.97;4946793;28;19950;-80
2022/04/12 04:01:07;;;;;;;;;;;;;;;4.58;57.88;97895.88;4915555;29;19975;-78
2022/04/12 04:17:00;;;;;;;;;;;;;;;4.54;57.78;97879.50;4897664;29;19927;-77
2022/04/12 04:20:14;;;;;;;;;;;;;;;4.53;57.83;97872.50;4918630;29;19947;-78
2022/04/12 04:27:18;;;;;;;;;;;;;;;4.58;57.88;97877.88;4921492;29;19938;-78
2022/04/12 04:41:34;;;;;;;;;;;;;;;4.46;58.07;97871.97;4905580;29;19970;-77
2022/04/12 04:44:54;;;;;;;;;;;;;;;4.38;58.05;97869.84;4900454;29;19993;-78
2022/04/12 07:21:47;;;;;;;;;;;;;;;9.41;45.66;97913.84;5014578;23;19966;-89
2022/04/12 07:24:19;;;;;;;;;;;;;;;9.48;46.17;97918.06;4938752;29;19927;-94
2022/04/12 07:26:56;;;;;;;;;;;;;;;9.70;45.97;97920.84;4936649;29;19934;-93
2022/04/12 07:29:24;;;;;;;;;;;;;;;9.86;45.76;97922.13;4943292;29;20019;-92
2022/04/12 07:31:52;;;;;;;;;;;;;;;10.07;45.30;97916.22;4939864;29;19931;-94
2022/04/12 07:34:20;;;;;;;;;;;;;;;10.30;44.16;97906.97;4942406;28;20107;-93
2022/04/12 07:36:53;;;;;;;;;;;;;;;10.57;43.36;97902.50;4942809;28;19934;-94
2022/04/12 07:39:23;;;;;;;;;;;;;;;10.75;42.22;97906.91;4938397;28;19976;-92
2022/04/12 07:41:52;;;;;;;;;;;;;;;10.96;41.61;97907.97;4934023;29;19934;-95
2022/04/12 07:44:20;;;;;;;;;;;;;;;10.99;41.72;97907.34;4950579;28;19933;-93
2022/04/12 07:46:48;;;;;;;;;;;;;;;11.19;40.69;97906.00;4942640;28;19926;-95
2022/04/12 07:49:17;;;;;;;;;;;;;;;11.34;41.24;97895.78;4933662;28;19933;-93
2022/04/12 07:51:46;;;;;;;;;;;;;;;11.36;40.55;97905.25;4942416;28;19930;-94
2022/04/12 07:54:14;;;;;;;;;;;;;;;11.51;40.50;97904.00;4939191;29;19926;-93
2022/04/12 07:59:48;;;;;;;;;;;;;;;11.91;39.98;97893.81;4942538;28;20017;-93
2022/04/12 08:02:17;;;;;;;;;;;;;;;11.69;38.55;97886.56;4942380;28;20312;-92
2022/04/12 08:14:59;;;;;;;;;;;;;;;12.71;38.39;97896.91;4945611;28;19989;-94
2022/04/12 08:17:27;;;;;;;;;;;;;;;12.98;37.84;97892.94;4947354;29;19926;-92
2022/04/12 08:19:55;;;;;;;;;;;;;;;13.17;36.97;97891.75;4953106;28;19934;-93
2022/04/12 08:22:27;;;;;;;;;;;;;;;13.29;36.50;97892.69;4979319;28;19934;-94
2022/04/12 08:25:16;;;;;;;;;;;;;;;13.10;37.88;97895.81;4942089;28;20041;-96
2022/04/12 08:27:44;;;;;;;;;;;;;;;13.18;36.74;97898.81;4926002;28;19964;-92
2022/04/12 08:30:13;;;;;;;;;;;;;;;13.39;37.17;97902.44;4933778;29;19930;-93
2022/04/12 08:32:41;;;;;;;;;;;;;;;13.24;35.59;97889.34;4949806;28;19930;-94
2022/04/12 08:35:10;;;;;;;;;;;;;;;13.44;36.47;97883.13;4944729;28;19926;-91
2022/04/12 08:37:38;;;;;;;;;;;;;;;13.77;35.68;97882.44;4945664;28;19933;-94
2022/04/12 08:40:07;;;;;;;;;;;;;;;13.91;34.43;97880.25;4941524;28;19931;-93
2022/04/12 08:43:00;;;;;;;;;;;;;;;14.33;33.55;97870.06;4948920;28;19957;-93
2022/04/12 08:48:22;;;;;;;;;;;;;;;14.42;33.51;97868.03;4933653;29;20017;-93
2022/04/12 08:50:53;;;;;;;;;;;;;;;14.54;33.49;97870.03;4938810;28;19926;-95
2022/04/12 08:53:21;;;;;;;;;;;;;;;14.63;33.82;97862.53;4944649;28;20002;-95
2022/04/12 08:55:49;;;;;;;;;;;;;;;14.45;33.38;97854.84;4944127;28;20002;-93
2022/04/12 08:58:18;;;;;;;;;;;;;;;14.41;32.23;97857.44;4944743;28;19926;-93
2022/04/12 09:00:49;;;;;;;;;;;;;;;14.76;32.96;97859.84;4940825;28;19969;-93
2022/04/12 09:03:18;;;;;;;;;;;;;;;14.69;34.56;97849.44;4932924;29;19941;-94
2022/04/12 09:05:46;;;;;;;;;;;;;;;14.94;32.57;97853.00;4935231;28;19926;-94
2022/04/12 09:08:23;;;;;;;;;;;;;;;14.63;32.29;97850.78;4944795;28;19926;-95
2022/04/12 09:10:56;;;;;;;;;;;;;;;14.82;33.84;97853.00;4951298;28;19949;-96
2022/04/12 09:13:24;;;;;;;;;;;;;;;15.15;32.20;97847.41;4967684;28;19950;-93
2022/04/12 09:15:55;;;;;;;;;;;;;;;15.12;31.97;97845.34;4955521;28;19926;-92
2022/04/12 09:18:43;;;;;;;;;;;;;;;15.40;32.09;97853.69;4946774;28;19927;-93
2022/04/12 09:21:16;;;;;;;;;;;;;;;15.42;30.83;97854.13;4953042;28;19926;-95
2022/04/12 09:23:45;;;;;;;;;;;;;;;15.47;31.51;97851.16;4972440;29;19926;-94
2022/04/12 09:26:18;;;;;;;;;;;;;;;15.42;31.73;97851.38;4933734;29;19937;-94
2022/04/12 09:28:46;;;;;;;;;;;;;;;15.61;31.44;97846.13;4941841;29;20385;-94
2022/04/12 09:31:23;;;;;;;;;;;;;;;15.51;31.89;97849.31;4938634;28;19981;-95
2022/04/12 09:33:53;;;;;;;;;;;;;;;15.68;31.51;97846.34;4944755;28;19926;-95
2022/04/12 09:36:21;;;;;;;;;;;;;;;15.19;32.13;97835.44;4944288;28;19926;-93
2022/04/12 09:38:56;;;;;;;;;;;;;;;15.14;31.64;97837.63;4941071;28;20022;-93
2022/04/12 09:41:25;;;;;;;;;;;;;;;15.31;32.22;97836.56;4956328;28;19926;-93
2022/04/12 09:43:54;;;;;;;;;;;;;;;15.37;31.89;97836.00;4935878;28;19926;-92
2022/04/12 09:46:24;;;;;;;;;;;;;;;15.32;30.58;97833.47;4943475;28;20435;-92
2022/04/12 09:48:52;;;;;;;;;;;;;;;15.64;30.68;97833.69;4939689;29;19926;-95
2022/04/12 09:51:21;;;;;;;;;;;;;;;15.44;30.31;97832.66;4930204;28;19954;-92
2022/04/12 09:53:49;;;;;;;;;;;;;;;15.45;31.21;97831.53;4940795;29;19934;-93
2022/04/12 09:56:18;;;;;;;;;;;;;;;15.74;31.33;97832.41;4947975;28;19932;-93
2022/04/12 09:58:48;;;;;;;;;;;;;;;15.97;30.53;97827.97;4939422;29;19930;-91
2022/04/12 10:01:16;;;;;;;;;;;;;;;15.53;30.75;97827.88;4962373;28;19937;-94
2022/04/12 10:03:47;;;;;;;;;;;;;;;15.53;31.06;97825.13;4928239;29;19930;-92
2022/04/12 10:06:15;;;;;;;;;;;;;;;15.93;29.90;97829.84;4928287;28;20389;-96
2022/04/12 10:08:43;;;;;;;;;;;;;;;16.00;31.24;97824.56;4944109;28;19969;-94
2022/04/12 10:11:13;;;;;;;;;;;;;;;16.13;30.54;97823.34;4949044;28;19953;-95
2022/04/12 10:13:42;;;;;;;;;;;;;;;16.44;31.06;97819.09;4939928;29;19931;-94
2022/04/12 10:16:11;;;;;;;;;;;;;;;16.65;30.39;97827.84;4925327;28;20309;-94
2022/04/12 10:18:39;;;;;;;;;;;;;;;16.70;30.97;97824.84;4940361;28;20020;-94
2022/04/12 10:21:08;;;;;;;;;;;;;;;16.41;29.78;97823.34;4931371;28;19927;-94
2022/04/12 10:23:37;;;;;;;;;;;;;;;16.72;30.06;97825.34;4939608;28;20380;-93
2022/04/12 10:26:06;;;;;;;;;;;;;;;16.97;29.50;97823.19;4940397;28;19927;-93
2022/04/12 10:28:35;;;;;;;;;;;;;;;17.23;28.72;97811.66;4940160;29;19930;-93
2022/04/12 10:31:06;;;;;;;;;;;;;;;17.31;29.69;97804.41;4924373;29;20374;-93
2022/04/12 10:33:54;;;;;;;;;;;;;;;17.28;28.97;97803.16;4927774;29;19927;-93
2022/04/12 10:36:27;;;;;;;;;;;;;;;17.41;29.05;97797.53;4924367;28;20378;-94
2022/04/12 10:38:55;;;;;;;;;;;;;;;17.23;28.73;97789.69;4940261;28;20385;-93
2022/04/12 10:41:29;;;;;;;;;;;;;;;17.10;27.91;97801.97;4937417;29;19930;-93
2022/04/12 10:43:58;;;;;;;;;;;;;;;17.41;29.19;97794.78;4940046;28;20393;-95
2022/04/12 10:46:27;;;;;;;;;;;;;;;17.49;28.82;97791.03;4924108;29;19931;-94
2022/04/12 10:48:56;;;;;;;;;;;;;;;17.80;26.69;97788.22;4940218;28;20025;-93
2022/04/12 10:51:39;;;;;;;;;;;;;;;17.85;28.27;97784.38;4941040;28;19926;-93
2022/04/12 10:54:07;;;;;;;;;;;;;;;17.78;28.03;97779.50;4942439;28;20377;-91
2022/04/12 10:56:42;;;;;;;;;;;;;;;17.78;28.33;97785.00;4942085;28;19929;-94
2022/04/12 10:59:16;;;;;;;;;;;;;;;17.98;27.25;97783.06;4943391;28;19936;-94
2022/04/12 11:01:46;;;;;;;;;;;;;;;17.93;27.74;97788.84;4943132;28;19930;-93
2022/04/12 11:04:15;;;;;;;;;;;;;;;17.66;27.69;97787.09;4942218;28;19926;-94
2022/04/12 11:06:46;;;;;;;;;;;;;;;17.80;26.46;97787.41;4942564;28;20033;-93
2022/04/12 11:09:16;;;;;;;;;;;;;;;17.76;28.67;97795.56;4939103;29;19956;-93
2022/04/12 11:11:48;;;;;;;;;;;;;;;17.66;27.86;97784.34;4938793;29;23367;-95
2022/04/12 11:14:26;;;;;;;;;;;;;;;17.84;25.69;97770.97;4942437;28;19949;-93
2022/04/12 11:16:56;;;;;;;;;;;;;;;17.61;26.90;97773.63;4942834;28;20369;-94
2022/04/12 11:19:25;;;;;;;;;;;;;;;17.68;25.80;97773.78;4939261;29;19994;-94
2022/04/12 11:22:03;;;;;;;;;;;;;;;17.68;26.20;97769.06;4927478;28;19961;-93
2022/04/12 11:24:32;;;;;;;;;;;;;;;17.85;25.01;97769.84;4946726;29;19926;-94
2022/04/12 11:27:04;;;;;;;;;;;;;;;17.51;26.01;97775.00;4929524;29;19927;-95
2022/04/12 11:29:33;;;;;;;;;;;;;;;17.94;26.98;97773.16;4939805;28;19927;-93
2022/04/12 11:32:01;;;;;;;;;;;;;;;18.18;25.10;97770.09;4925801;28;20278;-93
2022/04/12 11:34:29;;;;;;;;;;;;;;;17.99;26.02;97770.91;4942454;28;19926;-94
2022/04/12 11:36:59;;;;;;;;;;;;;;;18.20;25.01;97761.47;4960299;28;19937;-94
2022/04/12 11:39:54;;;;;;;;;;;;;;;17.91;25.96;97762.91;4970461;28;20297;-94
2022/04/12 11:42:22;;;;;;;;;;;;;;;17.96;26.33;97757.91;4964884;28;19926;-93
2022/04/12 11:44:51;;;;;;;;;;;;;;;17.64;25.83;97762.72;4947548;28;19926;-94
2022/04/12 11:47:19;;;;;;;;;;;;;;;17.78;26.83;97757.53;4943202;28;19954;-94
2022/04/12 11:49:47;;;;;;;;;;;;;;;17.84;25.33;97754.50;4942047;28;19926;-95
2022/04/12 11:52:16;;;;;;;;;;;;;;;17.79;27.25;97770.13;4946714;28;19926;-94
2022/04/12 11:54:45;;;;;;;;;;;;;;;17.99;26.66;97761.84;4940671;28;19926;-95
2022/04/12 11:57:20;;;;;;;;;;;;;;;18.07;26.41;97752.59;4947109;29;19977;-93
2022/04/12 11:59:50;;;;;;;;;;;;;;;18.11;26.17;97747.97;4940353;28;19930;-93
2022/04/12 12:02:19;;;;;;;;;;;;;;;18.48;25.86;97744.66;4946330;28;20404;-95
2022/04/12 12:04:48;;;;;;;;;;;;;;;18.57;26.62;97742.47;4945774;28;19926;-90
2022/04/12 12:07:16;;;;;;;;;;;;;;;18.62;24.26;97741.38;4946170;28;19948;-92
2022/04/12 12:09:53;;;;;;;;;;;;;;;18.56;24.89;97741.69;4945676;28;20381;-92
2022/04/12 12:12:25;;;;;;;;;;;;;;;18.49;23.92;97740.78;4942092;29;19932;-94
2022/04/12 12:14:56;;;;;;;;;;;;;;;18.22;24.98;97743.47;4938016;29;19933;-94
2022/04/12 12:17:28;;;;;;;;;;;;;;;18.38;25.38;97745.31;4942560;29;19927;-93
2022/04/12 12:19:56;;;;;;;;;;;;;;;18.72;24.97;97738.03;4960050;28;19933;-93
2022/04/12 12:22:25;;;;;;;;;;;;;;;18.74;24.49;97733.72;4942501;29;19934;-93
2022/04/12 12:24:56;;;;;;;;;;;;;;;18.86;25.01;97731.97;4952707;28;19926;-92
2022/04/12 12:27:29;;;;;;;;;;;;;;;18.92;25.08;97731.28;4941454;29;19926;-93
2022/04/12 12:30:01;;;;;;;;;;;;;;;19.06;24.92;97725.16;4932984;29;20073;-94
2022/04/12 12:32:33;;;;;;;;;;;;;;;19.15;24.08;97733.97;4947931;28;20012;-93
2022/04/12 12:35:03;;;;;;;;;;;;;;;18.96;25.90;97723.03;4940711;29;19926;-93
2022/04/12 12:37:31;;;;;;;;;;;;;;;19.20;24.65;97721.81;4926277;29;19926;-91
2022/04/12 12:39:59;;;;;;;;;;;;;;;19.13;24.28;97716.22;4943887;28;19930;-92
2022/04/12 12:42:36;;;;;;;;;;;;;;;19.16;24.94;97716.25;4945578;28;19926;-91
2022/04/12 12:45:08;;;;;;;;;;;;;;;19.17;25.58;97715.09;4935656;28;19926;-90
2022/04/12 12:47:37;;;;;;;;;;;;;;;19.25;24.44;97710.50;4943867;28;19978;-93
2022/04/12 12:50:08;;;;;;;;;;;;;;;19.14;23.82;97706.81;4944620;28;19926;-93
2022/04/12 12:52:36;;;;;;;;;;;;;;;19.04;24.16;97711.00;4942019;28;19926;-93
2022/04/12 12:55:07;;;;;;;;;;;;;;;18.94;25.87;97704.16;4955978;28;19926;-93
2022/04/12 12:57:39;;;;;;;;;;;;;;;18.87;24.72;97712.31;4929831;28;19926;-91
2022/04/12 13:00:10;;;;;;;;;;;;;;;18.90;25.74;97708.81;4944638;28;19926;-93
2022/04/12 13:02:38;;;;;;;;;;;;;;;18.96;26.90;97714.78;4938693;29;19982;-93
2022/04/12 13:05:08;;;;;;;;;;;;;;;19.15;25.67;97714.69;4931443;28;19930;-94
2022/04/12 13:07:36;;;;;;;;;;;;;;;19.00;26.95;97715.63;4945690;28;19927;-93
2022/04/12 13:10:08;;;;;;;;;;;;;;;19.29;25.12;97705.81;4944861;28;19977;-94
2022/04/12 13:15:31;;;;;;;;;;;;;;;18.51;24.89;97700.72;4933583;28;19926;-94
2022/04/12 13:17:59;;;;;;;;;;;;;;;18.77;25.87;97697.22;4940541;29;19926;-95
2022/04/12 13:20:27;;;;;;;;;;;;;;;18.88;25.71;97705.66;4930550;28;20270;-94
2022/04/12 13:23:01;;;;;;;;;;;;;;;19.02;25.70;97708.63;4944746;28;19930;-93
2022/04/12 13:25:30;;;;;;;;;;;;;;;18.99;24.92;97697.53;4940344;29;20270;-94
2022/04/12 13:28:00;;;;;;;;;;;;;;;18.84;25.12;97691.03;4933320;28;19926;-92
2022/04/12 13:30:28;;;;;;;;;;;;;;;18.89;24.63;97696.22;4940947;29;19930;-94
2022/04/12 13:32:56;;;;;;;;;;;;;;;18.70;24.50;97688.88;4925543;29;20330;-94
2022/04/12 13:35:25;;;;;;;;;;;;;;;18.78;24.53;97687.00;4928284;28;19933;-94
2022/04/12 13:37:53;;;;;;;;;;;;;;;18.73;23.86;97684.56;4944461;28;20025;-94
2022/04/12 13:40:22;;;;;;;;;;;;;;;18.68;26.25;97688.44;4935230;28;19964;-93
2022/04/12 13:42:50;;;;;;;;;;;;;;;19.03;25.39;97681.88;4943772;28;20297;-94
2022/04/12 13:45:20;;;;;;;;;;;;;;;19.10;25.07;97684.72;4935803;28;19965;-93
2022/04/12 13:47:49;;;;;;;;;;;;;;;19.36;24.21;97681.91;4928189;28;19927;-93
2022/04/12 13:50:18;;;;;;;;;;;;;;;19.24;23.31;97675.84;4925615;29;19934;-93
2022/04/12 13:52:46;;;;;;;;;;;;;;;19.16;24.62;97677.72;4959682;28;19933;-93
2022/04/12 13:55:16;;;;;;;;;;;;;;;19.31;24.55;97682.25;4961200;28;20025;-94
2022/04/12 13:57:48;;;;;;;;;;;;;;;19.38;25.07;97674.06;4942781;29;19934;-94
2022/04/12 14:00:23;;;;;;;;;;;;;;;19.59;24.59;97675.50;4948235;29;19926;-91
2022/04/12 14:02:53;;;;;;;;;;;;;;;19.52;24.07;97673.44;4957341;28;19930;-91
2022/04/12 14:05:24;;;;;;;;;;;;;;;19.55;23.53;97671.91;4946575;29;19965;-92
2022/04/12 14:08:16;;;;;;;;;;;;;;;19.55;23.62;97658.94;4953227;28;20016;-93
2022/04/12 14:10:45;;;;;;;;;;;;;;;19.58;24.16;97671.16;4948790;28;19926;-93
2022/04/12 14:13:13;;;;;;;;;;;;;;;19.34;23.84;97666.94;4939243;29;19926;-93
2022/04/12 14:15:41;;;;;;;;;;;;;;;19.22;22.97;97667.94;4940382;28;19934;-93
2022/04/12 14:18:11;;;;;;;;;;;;;;;19.26;23.41;97662.50;4943321;28;19926;-92
2022/04/12 14:20:39;;;;;;;;;;;;;;;19.33;24.54;97660.63;4934820;28;19962;-93
2022/04/12 14:23:09;;;;;;;;;;;;;;;19.34;22.99;97664.97;4941899;28;20377;-92
2022/04/12 14:25:37;;;;;;;;;;;;;;;19.56;22.75;97660.50;4928960;28;20337;-92
2022/04/12 14:28:08;;;;;;;;;;;;;;;19.55;22.10;97658.13;4938278;29;19933;-93
2022/04/12 14:30:36;;;;;;;;;;;;;;;19.59;22.20;97658.97;4948612;28;19926;-92
2022/04/12 14:33:05;;;;;;;;;;;;;;;19.49;22.81;97663.16;4938217;29;19926;-93
2022/04/12 14:35:34;;;;;;;;;;;;;;;19.45;22.02;97664.31;4959892;28;19926;-95
2022/04/12 14:38:03;;;;;;;;;;;;;;;19.61;22.99;97659.41;4942321;28;19930;-94
2022/04/12 14:40:34;;;;;;;;;;;;;;;19.66;24.03;97656.31;4948978;28;19936;-92
2022/04/12 14:43:02;;;;;;;;;;;;;;;19.72;24.97;97665.03;4934335;28;20469;-92
2022/04/12 14:45:31;;;;;;;;;;;;;;;19.70;23.85;97659.09;4932715;29;20389;-92
2022/04/12 14:48:02;;;;;;;;;;;;;;;19.48;23.09;97663.53;4929116;29;19931;-94
2022/04/12 14:50:30;;;;;;;;;;;;;;;19.52;23.96;97664.38;4924240;29;19934;-93
2022/04/12 14:53:00;;;;;;;;;;;;;;;19.08;23.12;97657.56;4931279;29;19926;-95
2022/04/12 14:55:52;;;;;;;;;;;;;;;19.30;23.70;97664.13;4927740;28;19931;-94
2022/04/12 14:58:22;;;;;;;;;;;;;;;19.25;23.93;97656.19;4958585;28;20399;-93
2022/04/12 15:00:51;;;;;;;;;;;;;;;19.41;24.09;97652.44;4943444;28;19933;-93
2022/04/12 15:03:19;;;;;;;;;;;;;;;19.32;23.98;97653.53;4939276;29;20020;-95
2022/04/12 15:05:47;;;;;;;;;;;;;;;19.43;23.04;97652.84;4939769;29;19936;-94
2022/04/12 15:08:17;;;;;;;;;;;;;;;19.19;23.10;97654.16;4933952;28;19926;-95
2022/04/12 15:10:46;;;;;;;;;;;;;;;19.17;23.64;97659.22;4935830;28;19932;-95
2022/04/12 15:13:15;;;;;;;;;;;;;;;19.09;22.93;97658.34;4968971;28;19926;-94
2022/04/12 15:15:45;;;;;;;;;;;;;;;19.09;22.85;97655.59;4926697;28;19927;-95
2022/04/12 15:18:14;;;;;;;;;;;;;;;19.10;23.18;97659.94;4929117;28;19933;-95
2022/04/12 15:20:42;;;;;;;;;;;;;;;19.10;22.60;97648.91;4931558;29;19938;-93
2022/04/12 15:23:10;;;;;;;;;;;;;;;19.26;23.15;97657.78;4941197;28;19965;-94
2022/04/12 15:25:40;;;;;;;;;;;;;;;19.33;23.43;97646.03;4936213;28;19926;-93
2022/04/12 15:28:10;;;;;;;;;;;;;;;19.53;23.46;97654.94;4939927;29;19927;-93
2022/04/12 15:30:38;;;;;;;;;;;;;;;19.55;24.11;97647.91;4939515;29;19927;-93
2022/04/12 15:33:07;;;;;;;;;;;;;;;19.58;23.34;97649.09;4929668;29;19927;-91
2022/04/12 15:35:41;;;;;;;;;;;;;;;19.64;24.31;97644.84;4932835;28;19933;-92
2022/04/12 15:38:10;;;;;;;;;;;;;;;19.43;23.18;97655.63;4937612;28;19934;-90
2022/04/12 15:40:40;;;;;;;;;;;;;;;19.50;23.70;97647.44;4971607;28;19933;-81
2022/04/12 15:43:08;;;;;;;;;;;;;;;19.53;23.51;97654.94;4937716;28;19950;-81
2022/04/12 15:45:36;;;;;;;;;;;;;;;19.38;22.31;97652.00;4954917;29;20401;-81
2022/04/12 15:48:05;;;;;;;;;;;;;;;19.38;23.25;97652.00;4947884;28;19969;-82
2022/04/12 15:50:32;;;;;;;;;;;;;;;19.31;22.08;97648.41;4949305;29;19982;-81
2022/04/12 15:53:01;;;;;;;;;;;;;;;19.21;23.10;97657.31;4945913;28;20377;-81
2022/04/12 15:55:55;;;;;;;;;;;;;;;19.23;23.78;97653.03;4969811;28;19941;-86
2022/04/12 15:58:23;;;;;;;;;;;;;;;19.21;23.65;97654.56;4938072;28;20024;-83
2022/04/12 16:00:52;;;;;;;;;;;;;;;18.95;23.79;97652.66;4951460;28;20393;-83
2022/04/12 16:03:24;;;;;;;;;;;;;;;18.98;23.51;97649.16;4949440;28;19931;-83
2022/04/12 16:05:53;;;;;;;;;;;;;;;19.00;24.06;97649.56;4938328;28;19935;-86
2022/04/12 16:08:21;;;;;;;;;;;;;;;19.05;23.99;97647.28;4962587;28;20305;-86
2022/04/12 16:10:49;;;;;;;;;;;;;;;18.91;22.88;97654.53;4941954;28;19926;-90
2022/04/12 16:13:19;;;;;;;;;;;;;;;18.96;23.86;97654.22;4941477;28;19926;-83
2022/04/12 16:15:47;;;;;;;;;;;;;;;18.81;23.57;97654.06;4968089;28;19961;-87
2022/04/12 16:18:15;;;;;;;;;;;;;;;18.84;22.85;97653.28;4968863;28;19926;-91
2022/04/12 16:20:43;;;;;;;;;;;;;;;18.70;22.77;97647.59;4944406;28;19933;-86
2022/04/12 16:23:11;;;;;;;;;;;;;;;18.53;22.41;97654.38;4988495;28;19926;-84
2022/04/12 16:25:39;;;;;;;;;;;;;;;18.49;23.26;97650.00;4961955;28;19941;-85
2022/04/12 16:28:08;;;;;;;;;;;;;;;18.49;22.51;97655.50;4956228;28;19977;-87
2022/04/12 16:30:37;;;;;;;;;;;;;;;18.54;23.54;97660.69;4932326;29;19927;-78
2022/04/12 16:33:07;;;;;;;;;;;;;;;18.65;23.85;97645.13;4969334;28;19926;-79
2022/04/12 16:35:35;;;;;;;;;;;;;;;18.45;22.51;97651.91;4941166;28;19926;-81
2022/04/12 16:38:03;;;;;;;;;;;;;;;18.51;22.52;97655.91;4949858;29;19977;-78
2022/04/12 16:40:32;;;;;;;;;;;;;;;18.46;21.95;97653.47;4928309;28;19926;-78
2022/04/12 16:43:00;;;;;;;;;;;;;;;18.38;22.25;97646.28;4937503;28;19926;-80
2022/04/12 16:45:28;;;;;;;;;;;;;;;18.40;23.85;97649.47;4939530;29;19935;-80
2022/04/12 16:47:57;;;;;;;;;;;;;;;18.45;23.26;97660.16;4939699;28;20350;-81
2022/04/12 16:50:25;;;;;;;;;;;;;;;18.49;23.66;97655.50;4935134;28;20000;-79
2022/04/12 16:52:53;;;;;;;;;;;;;;;18.49;23.01;97650.78;4927672;29;19926;-79
2022/04/12 16:55:22;;;;;;;;;;;;;;;18.53;23.99;97648.88;4934058;28;19926;-79
2022/04/12 16:57:50;;;;;;;;;;;;;;;18.49;23.65;97661.00;4941258;28;20354;-79
2022/04/12 17:00:19;;;;;;;;;;;;;;;18.41;23.75;97662.03;4939547;28;19927;-79
2022/04/12 17:02:47;;;;;;;;;;;;;;;18.38;23.28;97657.28;4943597;28;19963;-80
2022/04/12 17:05:16;;;;;;;;;;;;;;;18.41;23.90;97662.03;4943820;28;19930;-88
2022/04/12 17:07:44;;;;;;;;;;;;;;;18.37;23.59;97659.22;4940698;28;19926;-84
2022/04/12 17:10:17;;;;;;;;;;;;;;;18.13;23.46;97654.13;4931398;28;19938;-86
2022/04/12 17:12:51;;;;;;;;;;;;;;;18.12;23.96;97661.59;4922303;29;19930;-88
2022/04/12 17:15:19;;;;;;;;;;;;;;;18.08;24.43;97655.22;4925835;29;19926;-90
2022/04/12 17:17:51;;;;;;;;;;;;;;;17.89;24.70;97663.50;4933115;29;19930;-88
2022/04/12 17:20:20;;;;;;;;;;;;;;;17.74;26.00;97663.28;4924406;29;19938;-86
2022/04/12 17:22:47;;;;;;;;;;;;;;;17.68;25.09;97661.91;4927915;29;20039;-79
2022/04/12 17:25:15;;;;;;;;;;;;;;;17.57;26.45;97671.91;4944253;28;19939;-77
2022/04/12 17:27:43;;;;;;;;;;;;;;;17.55;27.94;97672.28;4938635;29;19926;-81
2022/04/12 17:30:18;;;;;;;;;;;;;;;17.38;24.88;97671.94;4924959;29;19978;-92
2022/04/12 17:33:01;;;;;;;;;;;;;;;17.31;26.92;97677.28;4916792;29;19926;-94
2022/04/12 17:35:44;;;;;;;;;;;;;;;17.23;27.37;97677.13;4922216;29;20342;-92
2022/04/12 17:38:20;;;;;;;;;;;;;;;17.15;27.61;97671.84;4932168;29;19927;-94
2022/04/12 17:40:50;;;;;;;;;;;;;;;17.14;27.53;97673.78;4923063;29;19927;-91
2022/04/12 17:43:20;;;;;;;;;;;;;;;17.01;27.38;97673.16;4898012;29;19926;-83
2022/04/12 17:45:49;;;;;;;;;;;;;;;16.87;28.97;97672.03;4943851;29;19943;-84
2022/04/12 17:48:18;;;;;;;;;;;;;;;16.73;30.07;97680.75;4944152;29;19931;-86
2022/04/12 17:50:46;;;;;;;;;;;;;;;16.66;30.77;97681.34;4937053;29;19930;-80
2022/04/12 17:53:16;;;;;;;;;;;;;;;16.62;29.32;97680.47;4943449;29;20321;-82
2022/04/12 17:55:51;;;;;;;;;;;;;;;16.64;28.52;97683.66;4927257;29;19933;-89
2022/04/12 17:58:20;;;;;;;;;;;;;;;16.57;28.89;97677.22;4925250;29;19934;-87
2022/04/12 18:00:48;;;;;;;;;;;;;;;16.45;29.63;97678.88;4943925;29;19987;-87
2022/04/12 18:03:17;;;;;;;;;;;;;;;16.36;29.96;97681.03;4936468;29;19926;-85
2022/04/12 18:05:45;;;;;;;;;;;;;;;16.26;29.77;97686.25;4927071;29;21036;-87
2022/04/12 18:08:15;;;;;;;;;;;;;;;16.15;30.34;97684.03;4954744;29;19926;-90
2022/04/12 18:10:46;;;;;;;;;;;;;;;16.07;31.21;97685.00;4923136;29;20274;-95
2022/04/12 18:13:16;;;;;;;;;;;;;;;15.97;31.30;97688.25;4938839;28;19927;-91
2022/04/12 18:15:44;;;;;;;;;;;;;;;15.92;30.63;97683.03;4932001;28;20022;-90
2022/04/12 18:18:20;;;;;;;;;;;;;;;15.98;29.43;97684.38;4961579;28;20034;-89
2022/04/12 18:20:49;;;;;;;;;;;;;;;15.84;31.06;97681.25;4948780;28;19929;-89
2022/04/12 18:23:17;;;;;;;;;;;;;;;15.75;30.74;97686.09;4953808;28;19986;-89
2022/04/12 18:25:46;;;;;;;;;;;;;;;15.61;32.14;97684.56;4938091;28;20294;-90
2022/04/12 18:28:15;;;;;;;;;;;;;;;15.55;31.11;97682.38;4939572;28;20328;-90
2022/04/12 18:30:43;;;;;;;;;;;;;;;15.50;31.29;97685.38;4949244;28;20480;-90
2022/04/12 18:33:11;;;;;;;;;;;;;;;15.41;29.55;97689.06;4956714;28;19926;-90
2022/04/12 18:38:59;;;;;;;;;;;;;;;15.40;29.47;97686.69;4952026;28;20392;-90
2022/04/12 18:41:31;;;;;;;;;;;;;;;15.30;31.44;97687.19;4935408;28;19926;-90
2022/04/12 18:43:59;;;;;;;;;;;;;;;15.27;31.34;97693.34;4968172;28;19982;-90
2022/04/12 18:46:27;;;;;;;;;;;;;;;15.20;31.73;97693.94;4959995;28;19934;-91
2022/04/12 18:48:58;;;;;;;;;;;;;;;15.15;32.06;97694.19;4947290;28;19934;-91
2022/04/12 18:51:29;;;;;;;;;;;;;;;15.17;30.51;97695.41;4935373;28;19926;-90
2022/04/12 18:54:00;;;;;;;;;;;;;;;15.12;30.64;97711.28;4953998;28;19958;-89
2022/04/12 18:59:27;;;;;;;;;;;;;;;15.02;31.90;97714.50;4961412;28;19968;-93
2022/04/12 19:01:55;;;;;;;;;;;;;;;14.94;31.11;97699.81;4941194;28;19981;-93
2022/04/12 19:04:23;;;;;;;;;;;;;;;14.89;31.65;97698.09;4943783;28;19926;-93
2022/04/12 19:06:55;;;;;;;;;;;;;;;14.86;32.37;97701.56;4939198;28;20457;-94
2022/04/12 19:09:25;;;;;;;;;;;;;;;14.82;32.37;97688.91;4936937;29;19958;-94
2022/04/12 19:12:00;;;;;;;;;;;;;;;14.92;31.12;97699.38;4952491;28;19926;-95
2022/04/12 19:14:28;;;;;;;;;;;;;;;14.81;32.26;97698.25;4936300;29;19927;-94
2022/04/12 19:17:00;;;;;;;;;;;;;;;14.70;32.92;97697.91;4930383;28;20017;-94
2022/04/12 19:19:28;;;;;;;;;;;;;;;14.66;32.79;97697.00;4936957;28;19926;-95
2022/04/12 19:21:57;;;;;;;;;;;;;;;14.60;33.83;97706.59;4934862;29;20386;-80
2022/04/12 19:24:25;;;;;;;;;;;;;;;14.54;33.80;97700.56;4963437;28;19973;-95
2022/04/12 19:27:14;;;;;;;;;;;;;;;14.60;32.91;97701.13;4939122;28;19927;-95
2022/04/12 19:29:44;;;;;;;;;;;;;;;14.73;32.25;97707.38;4935709;28;19937;-95
2022/04/12 19:32:12;;;;;;;;;;;;;;;14.67;32.48;97707.59;4939072;28;19926;-94
2022/04/12 19:34:40;;;;;;;;;;;;;;;14.56;33.30;97714.66;4938374;28;20397;-94
2022/04/12 19:40:00;;;;;;;;;;;;;;;14.39;33.82;97712.13;4968513;28;20077;-94
2022/04/12 19:42:30;;;;;;;;;;;;;;;14.43;33.16;97710.28;4942237;28;19948;-93
2022/04/12 19:44:58;;;;;;;;;;;;;;;14.37;33.56;97709.72;4955861;28;19925;-93
2022/04/12 19:47:26;;;;;;;;;;;;;;;14.32;33.84;97714.59;4937607;28;19980;-94
2022/04/12 19:49:55;;;;;;;;;;;;;;;14.26;33.97;97710.50;4950986;28;19969;-93
2022/04/12 19:52:24;;;;;;;;;;;;;;;14.49;33.78;97710.88;4937202;28;19926;-94
2022/04/12 19:54:54;;;;;;;;;;;;;;;14.50;33.74;97710.56;4941938;28;19926;-94
2022/04/12 19:57:25;;;;;;;;;;;;;;;14.46;33.78;97720.56;4938389;29;19927;-94
2022/04/12 19:59:56;;;;;;;;;;;;;;;14.26;34.42;97714.03;4931821;28;20377;-93
2022/04/12 20:02:49;;;;;;;;;;;;;;;14.22;34.62;97723.25;4938907;28;20515;-95
2022/04/12 20:05:18;;;;;;;;;;;;;;;14.13;34.67;97720.63;4958530;28;20013;-95
2022/04/12 20:07:47;;;;;;;;;;;;;;;13.89;35.37;97724.09;4945044;28;19926;-95
2022/04/12 20:10:15;;;;;;;;;;;;;;;13.73;36.68;97725.88;4946125;28;20020;-94
2022/04/12 20:12:43;;;;;;;;;;;;;;;13.67;36.78;97729.94;4925426;29;19926;-94
2022/04/12 20:15:13;;;;;;;;;;;;;;;13.79;35.74;97735.44;4925390;29;19980;-95
2022/04/12 20:17:41;;;;;;;;;;;;;;;13.80;35.91;97726.13;4928207;29;19927;-95
2022/04/12 20:20:10;;;;;;;;;;;;;;;13.65;36.52;97729.50;4938136;29;20386;-94
2022/04/12 20:22:39;;;;;;;;;;;;;;;13.62;36.87;97720.03;4920131;29;19926;-95
2022/04/12 20:25:10;;;;;;;;;;;;;;;13.41;37.31;97724.72;4913259;29;19950;-93
2022/04/12 20:27:39;;;;;;;;;;;;;;;13.47;37.14;97717.91;4921430;28;19969;-95
2022/04/12 20:30:08;;;;;;;;;;;;;;;13.44;37.52;97724.84;4913527;29;20411;-93